Time;durP1;ratioP1;P1;durP2;ratioP2;P2;SDS_P1;SDS_P2;PMS_P1;PMS_P2;Temp;Humidity;BMP_temperature;BMP_pressure;BME280_temperature;BME280_humidity;BME280_pressure;Samples;Min_cycle;Max_cycle;Signal;HPM_P1;HPM_P2
2022/12/27 00:01:13;;;;;;;9.38;2.80;;;;;;;7.32;59.54;102107.44;4939423;28;115100;-68
2022/12/27 00:03:41;;;;;;;11.23;3.03;;;;;;;7.32;59.61;102096.91;4924642;28;113782;-68
2022/12/27 00:06:10;;;;;;;8.38;2.97;;;;;;;7.33;59.50;102114.47;4941166;28;124254;-68
2022/12/27 00:08:37;;;;;;;9.15;3.20;;;;;;;7.33;59.44;102109.22;4922389;28;122740;-68
2022/12/27 00:11:10;;;;;;;13.15;3.80;;;;;;;7.33;59.44;102104.81;4936521;28;115062;-67
2022/12/27 00:13:37;;;;;;;10.85;3.22;;;;;;;7.33;59.50;102111.84;4940703;28;113746;-68
2022/12/27 00:16:08;;;;;;;9.05;3.10;;;;;;;7.33;59.35;102117.13;4937411;28;124245;-68
2022/12/27 00:18:36;;;;;;;7.28;3.13;;;;;;;7.33;59.60;102117.13;4954273;28;124493;-68
2022/12/27 00:21:04;;;;;;;6.63;2.90;;;;;;;7.33;59.82;102114.47;4946241;28;114355;-68
2022/12/27 00:23:37;;;;;;;7.25;2.95;;;;;;;7.32;59.63;102118.84;4939178;28;113733;-68
2022/12/27 00:26:07;;;;;;;5.53;3.00;;;;;;;7.33;59.75;102122.38;4943307;28;124718;-68
2022/12/27 00:28:34;;;;;;;6.75;2.92;;;;;;;7.33;59.48;102125.88;4938910;28;123879;-68
2022/12/27 00:31:04;;;;;;;10.77;3.05;;;;;;;7.33;59.48;102122.38;4941795;28;113543;-68
2022/12/27 00:33:33;;;;;;;7.20;3.13;;;;;;;7.32;59.50;102118.00;4941492;28;113679;-68
2022/12/27 00:36:03;;;;;;;8.85;3.15;;;;;;;7.33;59.86;102119.75;4939060;28;124635;-68
2022/12/27 00:38:31;;;;;;;7.25;3.00;;;;;;;7.33;59.76;102125.03;4944320;28;124682;-68
2022/12/27 00:40:59;;;;;;;7.82;3.20;;;;;;;7.31;59.76;102126.75;4940865;28;115694;-68
2022/12/27 00:43:26;;;;;;;8.25;2.65;;;;;;;7.32;59.62;102128.53;4925431;28;115967;-68
2022/12/27 00:45:53;;;;;;;6.93;2.63;;;;;;;7.31;59.85;102134.66;4936450;28;123044;-68
2022/12/27 00:48:20;;;;;;;7.93;2.97;;;;;;;7.31;59.75;102137.31;4936169;28;124877;-68
2022/12/27 00:50:48;;;;;;;12.07;2.97;;;;;;;7.31;59.98;102138.22;4946024;28;114457;-68
2022/12/27 00:53:16;;;;;;;9.48;2.88;;;;;;;7.30;59.77;102135.56;4948014;28;115307;-67
2022/12/27 00:55:43;;;;;;;5.65;2.70;;;;;;;7.30;59.77;102138.22;4941197;28;122886;-67
2022/12/27 00:58:11;;;;;;;12.77;3.03;;;;;;;7.29;59.92;102140.00;4942719;28;124619;-68
2022/12/27 01:00:38;;;;;;;9.40;2.67;;;;;;;7.30;59.95;102143.47;4937386;28;114529;-67
2022/12/27 01:03:05;;;;;;;7.88;3.33;;;;;;;7.30;59.86;102154.03;4941084;28;114210;-68
2022/12/27 01:05:36;;;;;;;11.45;3.50;;;;;;;7.31;59.91;102153.13;4940908;28;124570;-67
2022/12/27 01:08:04;;;;;;;9.38;3.10;;;;;;;7.32;59.90;102160.16;4936103;28;124390;-68
2022/12/27 01:10:31;;;;;;;8.60;3.00;;;;;;;7.31;59.69;102163.66;4942901;28;114969;-67
2022/12/27 01:13:03;;;;;;;10.32;3.67;;;;;;;7.31;59.93;102163.66;4947690;28;113502;-68
2022/12/27 01:15:30;;;;;;;6.80;2.85;;;;;;;7.31;59.68;102159.28;4942129;28;124597;-68
2022/12/27 01:17:57;;;;;;;9.13;2.95;;;;;;;7.30;59.92;102151.38;4940785;28;123489;-68
2022/12/27 01:20:24;;;;;;;10.20;3.05;;;;;;;7.29;60.13;102152.25;4940776;28;114089;-68
2022/12/27 01:22:53;;;;;;;8.25;2.97;;;;;;;7.29;59.96;102154.91;4944419;28;114050;-68
2022/12/27 01:25:20;;;;;;;7.30;3.20;;;;;;;7.28;60.21;102154.03;4941210;28;123965;-68
2022/12/27 01:27:47;;;;;;;9.35;3.25;;;;;;;7.29;59.80;102162.81;4933930;28;124247;-68
2022/12/27 01:30:14;;;;;;;7.18;2.95;;;;;;;7.28;60.09;102163.72;4939064;28;116042;-68
2022/12/27 01:32:41;;;;;;;10.00;3.00;;;;;;;7.29;60.21;102160.16;4926425;28;115169;-68
2022/12/27 01:35:08;;;;;;;6.68;3.15;;;;;;;7.30;60.04;102164.56;4942877;28;124760;-67
2022/12/27 01:37:35;;;;;;;6.03;2.80;;;;;;;7.31;60.17;102161.94;4940230;28;124045;-68
2022/12/27 01:40:03;;;;;;;9.27;2.95;;;;;;;7.31;59.99;102168.94;4941698;28;113766;-68
2022/12/27 01:45:17;;;;;;;10.70;2.92;;;;;;;7.32;60.46;102178.59;4934071;28;124434;-68
2022/12/27 01:48:15;;;;;;;5.80;2.50;;;;;;;7.31;60.18;102182.09;4946626;28;124372;-68
2022/12/27 01:51:03;;;;;;;12.38;3.08;;;;;;;7.31;60.35;102184.75;4942798;28;114522;-67
2022/12/27 01:53:35;;;;;;;10.82;3.28;;;;;;;7.30;60.27;102183.00;4943450;28;115681;-68
2022/12/27 01:56:08;;;;;;;8.95;2.90;;;;;;;7.31;60.38;102190.00;4934183;28;124355;-67
2022/12/27 01:58:38;;;;;;;8.75;3.03;;;;;;;7.31;60.44;102184.75;4935123;28;124458;-68
2022/12/27 02:01:12;;;;;;;12.63;3.17;;;;;;;7.31;60.42;102195.28;4942920;28;114526;-68
2022/12/27 02:03:43;;;;;;;9.63;2.95;;;;;;;7.31;60.34;102196.19;4946933;28;114332;-68
2022/12/27 02:06:13;;;;;;;9.00;3.40;;;;;;;7.32;60.43;102197.03;4933215;28;125266;-68
2022/12/27 02:09:21;;;;;;;8.93;2.80;;;;;;;7.31;60.35;102200.56;4939210;28;125743;-68
2022/12/27 02:11:54;;;;;;;9.23;2.95;;;;;;;7.32;60.24;102204.94;4934720;28;115113;-68
2022/12/27 02:14:34;;;;;;;6.85;2.58;;;;;;;7.33;60.25;102212.00;4949245;28;113534;-68
2022/12/27 02:17:27;;;;;;;8.32;2.88;;;;;;;7.32;60.34;102207.59;4924893;28;124560;-68
2022/12/27 02:20:06;;;;;;;9.68;2.50;;;;;;;7.33;60.58;102214.63;4946396;28;124430;-68
2022/12/27 02:26:19;;;;;;;7.70;2.90;;;;;;;7.31;60.39;102221.63;4946051;28;114460;-68
2022/12/27 02:29:13;;;;;;;10.40;3.30;;;;;;;7.29;60.72;102213.78;4948002;28;124206;-68
2022/12/27 02:32:19;;;;;;;8.75;2.35;;;;;;;7.28;60.57;102211.16;4962822;28;123446;-68
2022/12/27 02:35:17;;;;;;;5.13;2.30;;;;;;;7.28;60.73;102205.88;4946853;28;114886;-68
2022/12/27 02:37:55;;;;;;;6.55;2.38;;;;;;;7.28;60.87;102216.41;4944041;28;114642;-68
2022/12/27 02:55:09;;;;;;;8.18;2.60;;;;;;;7.35;60.82;102226.03;4946490;28;124556;-68
2022/12/27 02:57:47;;;;;;;7.18;2.47;;;;;;;7.37;61.04;102227.75;4934530;28;114251;-68
2022/12/27 03:03:30;;;;;;;11.50;2.80;;;;;;;7.41;61.21;102223.31;4947193;28;124779;-68
2022/12/27 03:06:40;;;;;;;10.70;2.97;;;;;;;7.43;61.24;102218.91;4946124;28;124304;-68
2022/12/27 03:15:56;;;;;;;9.25;2.72;;;;;;;7.44;61.04;102201.31;4946529;28;123874;-68
2022/12/27 03:18:27;;;;;;;9.30;2.92;;;;;;;7.43;60.99;102200.44;4934918;28;123164;-68
2022/12/27 03:26:34;;;;;;;7.35;2.20;;;;;;;7.44;61.25;102225.94;4941474;28;125142;-68
2022/12/27 03:34:49;;;;;;;10.85;2.90;;;;;;;7.45;61.05;102248.75;4935161;28;113787;-68
2022/12/27 03:43:44;;;;;;;7.00;2.42;;;;;;;7.48;60.78;102256.66;4927811;28;113434;-68
2022/12/27 03:46:34;;;;;;;10.02;2.53;;;;;;;7.47;61.11;102252.25;4932346;28;114019;-68
2022/12/27 03:49:33;;;;;;;8.30;2.65;;;;;;;7.46;61.27;102255.78;4943176;28;124604;-68
2022/12/27 03:52:09;;;;;;;7.90;2.30;;;;;;;7.46;61.23;102258.41;4945382;28;124528;-68
2022/12/27 03:54:41;;;;;;;9.75;2.42;;;;;;;7.45;61.30;102256.66;4930992;28;114311;-68
2022/12/27 03:57:17;;;;;;;6.63;2.28;;;;;;;7.46;61.22;102258.41;4945018;28;113777;-68
2022/12/27 03:59:44;;;;;;;7.85;2.30;;;;;;;7.45;61.04;102256.66;4931511;28;124010;-68
2022/12/27 04:02:12;;;;;;;8.63;2.50;;;;;;;7.45;61.02;102267.22;4944965;28;124112;-68
2022/12/27 04:04:39;;;;;;;8.30;2.65;;;;;;;7.44;61.02;102260.19;4948550;28;113222;-68
2022/12/27 04:07:06;;;;;;;7.28;2.85;;;;;;;7.44;60.91;102262.84;4937511;28;114290;-68
2022/12/27 04:34:44;;;;;;;8.88;2.60;;;;;;;7.32;61.19;102270.84;4934445;28;124168;-68
2022/12/27 04:37:17;;;;;;;8.23;2.47;;;;;;;7.32;61.67;102260.28;4944042;28;114551;-67
2022/12/27 04:56:26;;;;;;;9.30;2.30;;;;;;;7.40;61.77;102263.72;4945789;28;124517;-68
2022/12/27 05:04:25;;;;;;;8.20;2.45;;;;;;;7.42;61.87;102272.50;4945371;28;124773;-68
2022/12/27 05:06:53;;;;;;;8.82;2.40;;;;;;;7.44;61.80;102270.75;4932476;28;123562;-68
2022/12/27 05:14:55;;;;;;;10.40;2.67;;;;;;;7.49;62.00;102290.00;4946004;28;123923;-67
2022/12/27 05:17:22;;;;;;;11.80;2.35;;;;;;;7.50;61.81;102291.78;4948077;28;124364;-67
2022/12/27 05:19:49;;;;;;;6.85;2.20;;;;;;;7.52;62.01;102290.00;4948385;28;114620;-68
2022/12/27 05:27:47;;;;;;;6.95;2.20;;;;;;;7.54;61.72;102293.50;4945551;28;123609;-68
2022/12/27 05:30:15;;;;;;;8.10;2.60;;;;;;;7.54;61.89;102288.22;4919957;28;114827;-68
2022/12/27 05:32:42;;;;;;;6.88;2.33;;;;;;;7.55;61.91;102305.78;4936136;28;113294;-68
2022/12/27 05:35:09;;;;;;;6.20;2.60;;;;;;;7.56;61.89;102307.53;4930915;28;123875;-68
2022/12/27 05:37:36;;;;;;;7.00;2.10;;;;;;;7.56;61.87;102307.53;4931599;28;124685;-68
2022/12/27 05:40:03;;;;;;;7.65;2.50;;;;;;;7.58;61.86;102311.03;4948229;28;114345;-68
2022/12/27 05:42:30;;;;;;;5.45;2.33;;;;;;;7.56;61.76;102307.53;4947053;28;114824;-68
2022/12/27 05:44:57;;;;;;;6.40;2.38;;;;;;;7.57;61.82;102314.56;4944338;28;124676;-68
2022/12/27 05:47:24;;;;;;;8.25;2.28;;;;;;;7.57;61.82;102319.84;4940045;28;123850;-68
2022/12/27 05:49:51;;;;;;;5.95;2.13;;;;;;;7.57;61.66;102311.94;4950849;28;114407;-68
2022/12/27 05:52:18;;;;;;;4.90;2.03;;;;;;;7.57;61.84;102325.13;4948806;28;114501;-68
2022/12/27 05:54:46;;;;;;;11.88;2.40;;;;;;;7.55;61.73;102321.63;4938480;28;124835;-68
2022/12/27 05:57:13;;;;;;;7.57;2.30;;;;;;;7.55;61.76;102326.88;4946347;28;123868;-68
2022/12/27 05:59:40;;;;;;;3.25;1.75;;;;;;;7.54;61.79;102330.41;4947174;28;115338;-68
2022/12/27 06:02:07;;;;;;;7.10;2.17;;;;;;;7.53;61.47;102328.63;4943488;28;115311;-67
2022/12/27 06:04:34;;;;;;;7.80;2.00;;;;;;;7.53;61.66;102333.91;4945324;28;124325;-68
2022/12/27 06:07:01;;;;;;;4.97;2.15;;;;;;;7.52;61.56;102331.31;4944034;28;124134;-67
2022/12/27 06:09:28;;;;;;;5.35;2.35;;;;;;;7.52;61.78;102337.44;4941474;28;114648;-68
2022/12/27 06:11:55;;;;;;;6.55;2.40;;;;;;;7.50;61.46;102336.59;4944235;28;113644;-68
2022/12/27 06:14:22;;;;;;;7.38;2.20;;;;;;;7.49;61.64;102332.19;4950023;28;123140;-67
2022/12/27 06:16:49;;;;;;;6.63;2.40;;;;;;;7.48;61.67;102341.00;4950726;28;123893;-67
2022/12/27 06:19:17;;;;;;;5.97;2.25;;;;;;;7.48;61.90;102341.00;4941298;28;114284;-67
2022/12/27 06:21:44;;;;;;;9.38;2.13;;;;;;;7.46;62.01;102332.22;4934527;28;114658;-67
2022/12/27 06:24:11;;;;;;;7.43;1.92;;;;;;;7.47;61.65;102343.66;4944870;28;124223;-67
2022/12/27 06:26:41;;;;;;;7.78;2.47;;;;;;;7.46;61.89;102337.50;4940987;28;124734;-66
2022/12/27 06:29:11;;;;;;;5.53;1.98;;;;;;;7.45;61.92;102338.38;4945956;28;114612;-67
2022/12/27 06:31:39;;;;;;;6.57;2.45;;;;;;;7.45;61.81;102341.00;4948002;28;114088;-67
2022/12/27 06:34:06;;;;;;;6.97;1.88;;;;;;;7.45;61.65;102335.75;4949645;28;123543;-67
2022/12/27 06:36:33;;;;;;;6.38;1.95;;;;;;;7.47;62.09;102326.06;4958090;28;124645;-68
2022/12/27 06:39:00;;;;;;;6.20;1.98;;;;;;;7.47;61.83;102333.97;4947063;28;114834;-66
2022/12/27 06:41:27;;;;;;;4.32;1.80;;;;;;;7.48;62.11;102332.19;4943232;28;113445;-67
2022/12/27 06:43:56;;;;;;;8.00;1.77;;;;;;;7.48;62.13;102330.47;4946741;28;124007;-67
2022/12/27 06:46:24;;;;;;;5.93;1.90;;;;;;;7.50;61.96;102333.09;4946966;28;123056;-67
2022/12/27 06:48:51;;;;;;;5.97;2.03;;;;;;;7.50;62.06;102339.22;4947696;28;114419;-67
2022/12/27 06:51:19;;;;;;;7.95;2.42;;;;;;;7.50;62.06;102344.50;4948256;28;115221;-67
2022/12/27 06:53:47;;;;;;;6.80;3.03;;;;;;;7.51;61.81;102346.22;4959047;28;124297;-67
2022/12/27 06:56:18;;;;;;;9.73;3.92;;;;;;;7.50;61.87;102349.78;4940669;28;126235;-67
2022/12/27 06:58:46;;;;;;;9.30;3.83;;;;;;;7.51;61.92;102356.78;4955690;28;115508;-67
2022/12/27 07:01:16;;;;;;;10.60;4.20;;;;;;;7.52;61.79;102357.69;4948104;28;113929;-66
2022/12/27 07:03:51;;;;;;;9.05;4.22;;;;;;;7.51;62.10;102367.31;4936946;28;122946;-67
2022/12/27 07:06:20;;;;;;;9.50;4.13;;;;;;;7.50;61.98;102365.59;4934363;28;124742;-67
2022/12/27 07:08:48;;;;;;;13.13;3.92;;;;;;;7.49;61.83;102363.81;4947287;28;114367;-68
2022/12/27 07:11:16;;;;;;;10.35;3.72;;;;;;;7.49;62.08;102369.09;4936146;28;113506;-68
2022/12/27 07:13:46;;;;;;;13.27;3.85;;;;;;;7.47;62.10;102368.22;4948320;28;124671;-67
2022/12/27 07:16:15;;;;;;;8.10;3.35;;;;;;;7.47;62.30;102370.88;4937166;28;125398;-67
2022/12/27 07:18:43;;;;;;;9.48;2.92;;;;;;;7.46;62.17;102379.69;4948399;28;114078;-67
2022/12/27 07:21:13;;;;;;;4.93;2.65;;;;;;;7.44;61.93;102381.47;4944748;28;114717;-67
2022/12/27 07:23:40;;;;;;;7.95;2.90;;;;;;;7.44;61.61;102381.47;4948091;28;124433;-68
2022/12/27 07:26:13;;;;;;;5.55;2.40;;;;;;;7.43;62.13;102384.97;4945187;28;124072;-67
2022/12/27 07:28:41;;;;;;;7.15;2.80;;;;;;;7.42;62.19;102388.47;4945072;28;114943;-67
2022/12/27 07:31:09;;;;;;;9.25;2.70;;;;;;;7.40;61.85;102390.25;4937950;28;114677;-67
2022/12/27 07:33:37;;;;;;;9.43;2.70;;;;;;;7.40;62.01;102390.25;4944078;28;123955;-67
2022/12/27 07:36:11;;;;;;;9.90;2.75;;;;;;;7.38;61.76;102397.28;4936923;28;124002;-67
2022/12/27 07:38:39;;;;;;;7.63;2.08;;;;;;;7.37;61.97;102400.84;4932429;28;116476;-67
2022/12/27 07:41:06;;;;;;;4.50;2.35;;;;;;;7.35;61.68;102407.88;4945469;28;114811;-67
2022/12/27 07:43:34;;;;;;;8.15;2.70;;;;;;;7.33;61.80;102414.91;4946316;28;124671;-67
2022/12/27 07:46:07;;;;;;;8.35;2.20;;;;;;;7.31;61.78;102406.13;4932068;28;124416;-67
2022/12/27 07:48:35;;;;;;;7.55;2.40;;;;;;;7.30;62.05;102414.94;4949371;28;114993;-68
2022/12/27 07:51:03;;;;;;;4.72;2.10;;;;;;;7.27;61.81;102410.56;4940099;28;113634;-67
2022/12/27 07:53:30;;;;;;;9.27;2.35;;;;;;;7.28;61.93;102406.16;4949785;28;124328;-68
2022/12/27 07:55:58;;;;;;;7.97;2.35;;;;;;;7.27;61.97;102415.84;4950837;28;125261;-67
2022/12/27 07:58:25;;;;;;;7.85;2.17;;;;;;;7.26;61.70;102423.75;4947987;28;116042;-68
2022/12/27 08:00:52;;;;;;;6.88;2.50;;;;;;;7.25;62.02;102419.34;4950481;28;114073;-68
2022/12/27 08:03:19;;;;;;;6.10;2.00;;;;;;;7.26;62.04;102423.75;4944571;28;124341;-68
2022/12/27 08:05:48;;;;;;;7.75;2.63;;;;;;;7.25;61.96;102422.84;4936266;28;124660;-68
2022/12/27 08:08:18;;;;;;;9.68;2.20;;;;;;;7.25;61.92;102427.25;4953574;28;115039;-68
2022/12/27 08:10:45;;;;;;;10.07;2.35;;;;;;;7.24;62.21;102425.50;4950250;28;115772;-68
2022/12/27 08:13:12;;;;;;;9.07;2.38;;;;;;;7.22;61.99;102429.00;4949457;28;123960;-67
2022/12/27 08:15:41;;;;;;;8.07;2.25;;;;;;;7.21;62.02;102429.91;4949022;28;124473;-67
2022/12/27 08:18:09;;;;;;;6.95;2.17;;;;;;;7.22;62.08;102434.28;4943229;28;114243;-67
2022/12/27 08:20:36;;;;;;;4.60;2.15;;;;;;;7.21;62.19;102429.91;4946935;28;115738;-67
2022/12/27 08:23:03;;;;;;;3.88;2.00;;;;;;;7.24;62.23;102441.31;4948552;28;124367;-68
2022/12/27 08:25:30;;;;;;;9.15;2.30;;;;;;;7.25;62.13;102437.78;4953016;28;125635;-68
2022/12/27 08:28:10;;;;;;;6.22;2.00;;;;;;;7.25;62.18;102432.50;4948719;28;115272;-68
2022/12/27 08:30:39;;;;;;;8.18;2.38;;;;;;;7.27;62.19;102436.00;4946580;28;114846;-68
2022/12/27 08:33:06;;;;;;;7.45;2.28;;;;;;;7.27;62.14;102441.28;4944109;28;123920;-68
2022/12/27 08:35:38;;;;;;;5.25;2.05;;;;;;;7.28;62.39;102438.66;4948224;28;123996;-68
2022/12/27 08:38:19;;;;;;;8.53;1.97;;;;;;;7.31;62.27;102445.66;4949033;28;114458;-68
2022/12/27 08:40:46;;;;;;;5.13;2.20;;;;;;;7.31;62.33;102443.00;4947601;28;113235;-67
2022/12/27 08:43:13;;;;;;;6.75;1.95;;;;;;;7.29;61.92;102440.41;4950098;28;124210;-68
2022/12/27 08:45:40;;;;;;;6.60;2.17;;;;;;;7.29;62.42;102444.78;4936820;28;124310;-68
2022/12/27 08:48:08;;;;;;;5.93;2.05;;;;;;;7.29;62.22;102439.50;4939338;28;114294;-67
2022/12/27 08:50:35;;;;;;;7.07;2.00;;;;;;;7.29;62.21;102436.88;4947931;28;113660;-67
2022/12/27 08:53:04;;;;;;;4.57;2.10;;;;;;;7.29;62.44;102445.69;4946286;28;124088;-67
2022/12/27 08:55:32;;;;;;;6.65;1.90;;;;;;;7.30;62.52;102441.28;4940749;28;124022;-68
2022/12/27 08:58:03;;;;;;;6.10;2.00;;;;;;;7.32;62.40;102439.50;4944672;28;114508;-68
2022/12/27 09:00:30;;;;;;;6.35;2.05;;;;;;;7.34;62.52;102435.09;4937682;28;114269;-68
2022/12/27 09:02:58;;;;;;;11.40;2.30;;;;;;;7.36;62.19;102435.97;4948257;28;124717;-68
2022/12/27 09:05:26;;;;;;;3.40;1.85;;;;;;;7.37;62.59;102443.88;4935329;28;123651;-67
2022/12/27 09:07:54;;;;;;;5.05;1.80;;;;;;;7.40;62.60;102442.97;4940421;28;114336;-67
2022/12/27 09:10:22;;;;;;;7.00;2.25;;;;;;;7.44;62.29;102439.44;4934708;28;112860;-67
2022/12/27 09:12:50;;;;;;;6.40;2.20;;;;;;;7.46;62.23;102437.69;4942218;28;125038;-67
2022/12/27 09:15:17;;;;;;;7.05;2.38;;;;;;;7.49;62.55;102437.63;4928380;28;123879;-67
2022/12/27 09:17:44;;;;;;;4.88;1.85;;;;;;;7.53;62.30;102438.50;4940336;28;115208;-67
2022/12/27 09:20:11;;;;;;;8.43;2.15;;;;;;;7.55;62.59;102437.63;4942590;28;114856;-67
2022/12/27 09:22:39;;;;;;;5.88;2.33;;;;;;;7.59;62.43;102438.44;4941367;28;125047;-67
2022/12/27 09:25:06;;;;;;;8.48;2.35;;;;;;;7.64;62.93;102431.38;4946618;28;124270;-67
2022/12/27 09:27:37;;;;;;;5.15;2.05;;;;;;;7.66;62.76;102434.03;4948811;28;114617;-67
2022/12/27 09:30:06;;;;;;;6.70;2.30;;;;;;;7.71;62.63;102437.50;4950637;28;114253;-67
2022/12/27 09:32:33;;;;;;;9.45;2.60;;;;;;;7.74;62.68;102442.75;4943044;28;124039;-68
2022/12/27 09:35:01;;;;;;;7.07;2.35;;;;;;;7.77;62.77;102442.72;4953506;28;124120;-67
2022/12/27 09:37:29;;;;;;;6.53;2.50;;;;;;;7.80;62.57;102454.13;4968296;28;113702;-68
2022/12/27 09:39:56;;;;;;;8.90;2.70;;;;;;;7.84;62.60;102439.16;4955615;28;113919;-67
2022/12/27 09:42:34;;;;;;;10.40;2.80;;;;;;;7.88;62.74;102440.00;4951821;28;124205;-67
2022/12/27 09:45:38;;;;;;;4.57;2.60;;;;;;;7.93;62.73;102449.63;4934391;28;124373;-68
2022/12/27 09:48:31;;;;;;;6.38;2.70;;;;;;;7.97;62.80;102456.63;4935180;28;113884;-68
2022/12/27 09:51:30;;;;;;;9.43;2.55;;;;;;;8.00;62.61;102455.72;4939028;28;114991;-68
2022/12/27 09:54:13;;;;;;;9.23;2.50;;;;;;;8.04;62.49;102451.31;4944781;28;124052;-67
2022/12/27 09:56:40;;;;;;;6.80;2.30;;;;;;;8.07;62.83;102464.47;4937199;28;123678;-68
2022/12/27 09:59:34;;;;;;;7.93;2.58;;;;;;;8.12;62.67;102465.31;4944376;28;114181;-67
2022/12/27 10:02:03;;;;;;;10.93;2.60;;;;;;;8.17;62.60;102468.78;4938840;28;114157;-67
2022/12/27 10:04:35;;;;;;;8.43;2.60;;;;;;;8.22;62.62;102476.66;4941969;28;123691;-67
2022/12/27 10:07:44;;;;;;;5.22;2.45;;;;;;;8.27;62.46;102475.75;4945116;28;123987;-67
2022/12/27 10:10:39;;;;;;;5.25;2.55;;;;;;;8.33;62.68;102467.75;4947463;28;115077;-67
2022/12/27 10:13:28;;;;;;;11.38;2.55;;;;;;;8.38;62.83;102463.31;4930699;28;115285;-68
2022/12/27 10:16:11;;;;;;;10.68;2.97;;;;;;;8.44;62.70;102466.78;4932696;28;124214;-67
2022/12/27 10:19:02;;;;;;;7.93;2.30;;;;;;;8.51;62.95;102468.50;4932854;28;123933;-67
2022/12/27 10:21:33;;;;;;;6.68;2.20;;;;;;;8.56;62.79;102464.03;4930160;28;115629;-67
2022/12/27 10:24:19;;;;;;;6.78;2.53;;;;;;;8.64;62.69;102474.53;4929463;28;114076;-67
2022/12/27 10:26:46;;;;;;;4.47;1.77;;;;;;;8.69;62.80;102470.94;4942705;28;122858;-67
2022/12/27 10:29:22;;;;;;;9.02;2.28;;;;;;;8.75;62.96;102468.22;4929309;28;123713;-67
2022/12/27 10:31:50;;;;;;;4.72;1.98;;;;;;;8.84;62.77;102471.66;4933154;28;114065;-67
2022/12/27 10:34:23;;;;;;;4.63;1.90;;;;;;;8.89;62.85;102469.81;4936100;28;113941;-67
2022/12/27 10:36:52;;;;;;;5.90;2.10;;;;;;;8.95;62.85;102472.41;4930809;28;124725;-67
2022/12/27 10:39:25;;;;;;;3.55;2.08;;;;;;;9.00;62.57;102473.22;4946468;28;123971;-67
2022/12/27 10:42:10;;;;;;;6.60;2.38;;;;;;;9.07;62.85;102459.03;4941304;28;114629;-67
2022/12/27 10:44:38;;;;;;;5.40;2.08;;;;;;;9.14;62.64;102465.13;4950889;28;114030;-68
2022/12/27 10:47:05;;;;;;;4.88;1.92;;;;;;;9.22;62.44;102467.69;4948354;28;124603;-67
2022/12/27 10:49:33;;;;;;;7.95;2.33;;;;;;;9.28;62.76;102467.59;4946749;28;124729;-67
2022/12/27 10:52:14;;;;;;;3.90;2.10;;;;;;;9.34;62.78;102457.81;4947005;28;114506;-67
2022/12/27 10:54:51;;;;;;;6.18;2.13;;;;;;;9.42;62.57;102455.06;4945218;28;113908;-67
2022/12/27 10:57:28;;;;;;;4.38;1.73;;;;;;;9.51;62.50;102449.63;4940883;28;124591;-67
2022/12/27 11:00:14;;;;;;;10.50;2.25;;;;;;;9.60;62.72;102447.75;4943809;28;124095;-67
2022/12/27 11:02:52;;;;;;;9.25;2.10;;;;;;;9.67;62.66;102444.13;4943219;28;116543;-67
2022/12/27 11:05:25;;;;;;;3.42;1.75;;;;;;;9.74;62.58;102451.94;4937083;28;115050;-67
2022/12/27 11:07:53;;;;;;;5.28;2.10;;;;;;;9.83;62.69;102456.22;4942502;28;124315;-67
2022/12/27 11:10:26;;;;;;;7.95;1.95;;;;;;;9.90;62.68;102457.84;4933130;28;124249;-68
2022/12/27 11:13:05;;;;;;;5.75;1.92;;;;;;;9.99;62.37;102454.19;4931430;28;114082;-68
2022/12/27 11:15:35;;;;;;;7.15;2.08;;;;;;;10.07;62.38;102448.75;4943520;28;113763;-68
2022/12/27 11:18:17;;;;;;;4.03;2.10;;;;;;;10.13;62.31;102449.53;4955002;28;124221;-68
2022/12/27 11:20:49;;;;;;;5.57;2.15;;;;;;;10.21;62.14;102441.44;4954292;28;124371;-68
2022/12/27 11:23:18;;;;;;;9.13;2.10;;;;;;;10.28;61.91;102437.81;4947058;28;113881;-68
2022/12/27 11:26:00;;;;;;;6.40;2.03;;;;;;;10.33;62.04;102425.34;4953265;28;112733;-68
2022/12/27 11:29:02;;;;;;;5.53;1.85;;;;;;;10.39;61.93;102428.81;4950914;28;124180;-70
2022/12/27 11:31:46;;;;;;;5.45;2.05;;;;;;;10.43;61.63;102441.06;4940130;28;124059;-68
2022/12/27 11:34:28;;;;;;;6.05;1.70;;;;;;;10.45;61.78;102444.56;4962541;28;113901;-67
2022/12/27 11:37:05;;;;;;;9.25;2.10;;;;;;;10.44;61.58;102448.13;4948381;28;113435;-68
2022/12/27 11:40:17;;;;;;;6.43;1.90;;;;;;;10.43;61.33;102443.72;4942658;28;124281;-68
2022/12/27 11:42:50;;;;;;;6.10;1.92;;;;;;;10.41;61.31;102437.59;4945528;28;124450;-68
2022/12/27 11:45:17;;;;;;;5.88;2.30;;;;;;;10.38;61.24;102438.53;4945000;28;115096;-68
2022/12/27 11:48:01;;;;;;;3.40;1.83;;;;;;;10.36;61.27;102434.16;4930817;28;113582;-68
2022/12/27 11:51:01;;;;;;;6.13;2.08;;;;;;;10.32;61.15;102439.50;4946877;28;124204;-68
2022/12/27 11:53:42;;;;;;;6.10;2.08;;;;;;;10.30;61.29;102438.69;4934723;28;123878;-68
2022/12/27 11:56:49;;;;;;;7.85;2.30;;;;;;;10.27;61.21;102430.75;4932478;28;115470;-68
2022/12/27 11:59:24;;;;;;;7.63;2.10;;;;;;;10.25;61.08;102431.69;4930215;28;114468;-68
2022/12/27 12:02:30;;;;;;;6.67;2.20;;;;;;;10.21;61.04;102436.16;4939200;28;124254;-68
2022/12/27 12:05:13;;;;;;;;;;;;;;;10.18;61.09;102420.31;4943360;28;123991;-68
2022/12/27 12:07:56;;;;;;;4.22;2.17;;;;;;;10.17;61.07;102418.59;4958538;28;112892;-68
2022/12/27 12:10:44;;;;;;;7.88;2.38;;;;;;;10.13;61.15;102416.88;4937085;28;114116;-68
2022/12/27 12:13:29;;;;;;;7.85;2.80;;;;;;;10.10;61.32;102412.50;4932424;28;124112;-68
2022/12/27 12:16:03;;;;;;;5.00;2.30;;;;;;;10.07;61.14;102416.97;4951758;28;124071;-68
2022/12/27 12:19:03;;;;;;;5.20;1.90;;;;;;;10.07;61.25;102411.69;4934900;28;114430;-68
2022/12/27 12:21:46;;;;;;;6.00;2.70;;;;;;;10.08;60.97;102402.88;4924805;28;113230;-68
2022/12/27 12:24:41;;;;;;;9.90;3.72;;;;;;;10.06;61.01;102392.28;4928201;28;124436;-68
2022/12/27 12:27:30;;;;;;;4.97;2.83;;;;;;;10.05;61.31;102381.72;4931070;28;124653;-68
2022/12/27 12:30:18;;;;;;;6.50;2.35;;;;;;;10.06;61.25;102383.50;4933401;28;114332;-68
2022/12/27 12:33:11;;;;;;;8.40;2.23;;;;;;;10.06;61.35;102383.50;4931422;28;114146;-68
2022/12/27 12:35:53;;;;;;;;;;;;;;;10.07;61.39;102382.56;4941067;28;124372;-68
2022/12/27 12:38:26;;;;;;;3.08;1.88;;;;;;;10.12;61.46;102378.06;4940767;28;123696;-68
2022/12/27 12:41:36;;;;;;;7.57;1.92;;;;;;;10.15;61.23;102383.28;4947451;28;114483;-68
2022/12/27 12:44:36;;;;;;;9.38;1.95;;;;;;;10.20;61.68;102365.56;4950347;28;113764;-68
2022/12/27 12:47:38;;;;;;;7.43;2.00;;;;;;;10.25;61.43;102370.78;4944635;28;123062;-68
2022/12/27 12:50:51;;;;;;;6.63;2.50;;;;;;;10.29;61.46;102360.09;4953015;28;124139;-68
2022/12/27 12:53:52;;;;;;;9.02;1.92;;;;;;;10.32;61.43;102370.66;4942649;28;115448;-68
2022/12/27 12:56:53;;;;;;;3.63;1.85;;;;;;;10.37;61.49;102352.03;4946452;28;114914;-68
2022/12/27 12:59:27;;;;;;;4.75;1.90;;;;;;;10.45;61.33;102359.81;4946476;28;123890;-68
2022/12/27 13:02:07;;;;;;;4.63;1.63;;;;;;;10.52;61.36;102358.78;4939335;28;124446;-68
2022/12/27 13:05:09;;;;;;;6.28;2.00;;;;;;;10.56;61.46;102363.13;4933778;28;114356;-68
2022/12/27 13:07:55;;;;;;;3.50;1.65;;;;;;;10.61;61.31;102355.94;4936770;28;114561;-68
2022/12/27 13:10:40;;;;;;;4.75;1.70;;;;;;;10.67;61.34;102345.22;4941586;28;122954;-68
2022/12/27 13:13:26;;;;;;;;;;;;;;;10.74;61.51;102345.06;4943975;28;123908;-68
2022/12/27 13:16:20;;;;;;;7.55;1.55;;;;;;;10.83;61.34;102334.28;4946697;28;114583;-68
2022/12/27 13:18:56;;;;;;;5.93;1.85;;;;;;;10.89;61.35;102329.72;4920085;28;113658;-68
2022/12/27 13:21:46;;;;;;;2.60;1.42;;;;;;;10.96;61.30;102330.44;4936038;28;124378;-68
2022/12/27 13:24:41;;;;;;;4.95;1.70;;;;;;;10.99;61.12;102325.06;4936929;28;124037;-68
2022/12/27 13:27:24;;;;;;;7.05;1.70;;;;;;;11.02;60.93;102317.06;4943749;28;114209;-68
2022/12/27 13:29:59;;;;;;;3.63;1.48;;;;;;;11.06;61.01;102310.78;4943050;28;114140;-68
2022/12/27 13:33:04;;;;;;;5.63;1.77;;;;;;;11.07;60.83;102315.16;4944209;28;124101;-68
2022/12/27 13:35:58;;;;;;;5.03;1.83;;;;;;;11.09;60.67;102302.75;4944201;28;123724;-68
2022/12/27 13:38:42;;;;;;;3.75;1.60;;;;;;;11.12;60.79;102298.28;4929619;28;114519;-68
2022/12/27 13:41:21;;;;;;;4.72;1.70;;;;;;;11.13;60.60;102290.28;4934749;28;116543;-68
2022/12/27 13:44:25;;;;;;;4.82;1.73;;;;;;;11.16;60.65;102284.06;4941842;28;124527;-68
2022/12/27 13:47:33;;;;;;;4.57;1.73;;;;;;;11.19;60.63;102276.00;4941339;28;123397;-67